Airfield :
LOGIN :

Register | Disclaimer

   EN    FR    IT 

 










Legend :    VFR   Marginal VFR   IFR   Intensive IFR   Very Intensive IFR
Visi :
Ceiling :
>= 8 km
>= 3000ft
5 to 8 km
1000 to 3000 ft
1500m to 5 km
500 to 1000 ft
800 to 1500m
200 to 500 ft
< 800m
< 200 ft
Symbols :   Thunderstorms  Fog  Heavy snow  Heavy precipitations  Wind > 20 kt
SIGMETs :     Misc.  Thunderstorms  Icing  Turbulence  Mountain Waves  Volcanic Ashes







- Airport Elevation : 13 ft
- IATA code : SNR
- Download approach charts


LFRZ - St-Nazaire

CURRENT METAR :
  • 260300Z AUTO 12006KT 6000 NSC 08/06 Q1015 TEMPO 4000 BR

EXPIRED METARs :
  • 260230Z AUTO 09005KT 6000 NSC 07/05 Q1015 TEMPO 4000 BR
  • 260200Z AUTO 14006KT 6000 NSC 08/06 Q1015 NOSIG
  • 260130Z AUTO 09005KT 7000 NSC 06/04 Q1015 NOSIG
  • 260100Z AUTO 06007KT 7000 NSC 07/05 Q1015 NOSIG

TAF TAF LFRZ
Valid from the 26 at 00:00 until the 27 at 00:00 UTC


252300Z 2600/2624 08006KT 9999 SCT040
TEMPO 2604/2607 4000 BR
No reported NOTAMs for that airfield.



MET'MAP, your aeronautical weather chart ! - Copyright ORBIFLY December 2007 - Disclaimer

ORBIFLY MET'MAP TEAM :

Programming & Development : Alexandra Zaïnal
Concept & Development : Baudouin d'Aumeries
Co-Development & Prog : Marc-Olivier Méhu
Technical & hardware support : Manuel Goepfert

Contact : metmap@orbifly.com




SOURCES & CREDITS :

   NOAA